Login

matteoB87
1 activity; - Last training unit 30/08/2013
30/08/2013 Show to everybody enduro farra 7.87 156 00:41:14 11.46 Km\h Saracen ariel
16/07/2013 Show to everybody gemona PS 123 34.07 1433 03:36:14 9.45 Km\h Saracen ariel
26/05/2013 Show to everybody Allenamento n. 34 27.74 1203 02:31:41 10.97 Km\h Saracen ariel
23/05/2013 Show to everybody Allenamento n. 33 13.59 401 01:05:41 12.41 Km\h Saracen ariel
22/05/2013 Show to everybody Allenamento n. 32 14.68 543 01:16:02 11.58 Km\h Saracen ariel
18/05/2013 Show to everybody super enduro gemona ps 1 e 2 28.09 1236 02:55:31 9.6 Km\h Saracen ariel
15/05/2013 Show to everybody Allenamento n. 30 24.71 1017 01:54:55 12.9 Km\h Saracen ariel
12/05/2013 Show to everybody Allenamento n. 29 20.68 370 01:53:22 10.95 Km\h Saracen ariel
10/05/2013 Show to everybody Allenamento n. 28 15.18 414 01:22:24 11.05 Km\h Saracen ariel
09/05/2013 Show to everybody Allenamento n. 27 28.5 403 02:00:35 14.18 Km\h Saracen ariel
04/05/2013 Show to everybody gemona 23.77 1030 02:11:52 10.81 Km\h Saracen ariel
01/05/2013 Show to everybody Ospo-Tinjan 36.23 1154 03:35:19 10.1 Km\h Saracen ariel
26/04/2013 Show to everybody Allenamento n. 26 27.47 379 02:02:09 13.49 Km\h Saracen ariel
26/04/2013 Show to everybody Allenamento n. 25 44.2 770 02:48:21 15.75 Km\h Saracen ariel
25/04/2013 Show to everybody Allenamento n. 24 25.31 569 02:16:29 11.13 Km\h Saracen ariel
25/04/2013 Show to everybody Allenamento n. 24 25.31 569 02:16:29 11.13 Km\h Saracen ariel
21/04/2013 Show to everybody Allenamento n. 23 35.41 1167 03:22:20 10.5 Km\h Saracen ariel
18/04/2013 Show to everybody Allenamento n. 22 28.83 418 01:48:39 15.92 Km\h Saracen ariel
16/04/2013 Show to everybody Allenamento n. 21 39.12 720 02:08:27 18.28 Km\h Saracen ariel
13/04/2013 Show to everybody Allenamento n. 20 11.75 325 00:28:40 24.59 Km\h Saracen ariel
11/04/2013 Show to everybody Allenamento n. 19 16.25 304 01:17:48 12.53 Km\h Saracen ariel
10/04/2013 Show to everybody Allenamento n. 18 27.47 289 00:55:42 29.59 Km\h Saracen ariel
06/04/2013 Show to everybody Allenamento n. 17 26.74 982 01:25:07 18.85 Km\h Saracen ariel
03/04/2013 Show to everybody Allenamento n. 16 15.3 643 01:19:47 11.51 Km\h Saracen ariel
30/03/2013 Show to everybody enduro 3 camini 24.68 949 02:04:42 11.88 Km\h Saracen ariel
27/03/2013 Show to everybody Allenamento n. 14 20.54 261 01:26:44 14.21 Km\h Saracen ariel
21/03/2013 Show to everybody Allenamento n. 13 15.73 398 01:23:53 11.25 Km\h Saracen ariel
17/03/2013 Show to everybody Allenamento n. 12 31.44 1393 03:10:20 9.91 Km\h Saracen ariel
14/03/2013 Show to everybody Allenamento n. 11 28.64 362 02:04:44 13.78 Km\h Saracen ariel
10/03/2013 Show to everybody Allenamento n. 10 29.88 551 02:26:26 12.24 Km\h Saracen ariel
05/03/2013 Show to everybody Allenamento n. 9 36.38 766 02:25:44 14.98 Km\h Saracen ariel
03/03/2013 Show to everybody Trieste 3 camini 25.73 846 03:40:56 9.59 Km\h Saracen ariel
01/03/2013 Show to everybody Allenamento n. 7 13.53 535 01:18:50 10.3 Km\h Saracen ariel
28/02/2013 Show to everybody Allenamento n. 6 24.33 393 01:54:53 12.71 Km\h Saracen ariel
24/02/2013 Show to everybody korada 19.46 740 02:23:06 8.16 Km\h Saracen ariel
21/02/2013 Show to everybody Allenamento n. 4 13.43 320 01:11:53 11.21 Km\h Saracen ariel
17/02/2013 Show to everybody Allenamento n. 3 23.2 321 01:53:17 12.29 Km\h Saracen ariel
10/02/2013 Show to everybody Merna 37.38 655 02:38:15 14.17 Km\h Saracen ariel
07/02/2013 Show to everybody notturna 7 2 13 16.59 327 01:24:11 11.82 Km\h Saracen ariel
Training units 0
Kilometers 0 Km
Vertical gain 0 mt
Hours of riding 00:00:00
Average speed 0 Km/h
average HR 140
Points 48
Live Tracking »

Saracen ariel 78:42:42 959.2 Km

 
If you stop following this users you will not be able to compare your trainings with his

Now you follow this users and you can compare your trainings


MTB-Forum.it | 2012-2019 Training Camp v.1.6 rev 05